Time;durP1;ratioP1;P1;durP2;ratioP2;P2;SDS_P1;SDS_P2;PMS_P1;PMS_P2;Temp;Humidity;BMP_temperature;BMP_pressure;BME280_temperature;BME280_humidity;BME280_pressure;Samples;Min_cycle;Max_cycle;Signal;HPM_P1;HPM_P2
2023/05/21 00:01:22;;;;;;;5.00;4.70;;;;;;;;;;10443147;28;20222;-74
2023/05/21 00:06:23;;;;;;;4.88;4.43;;;;;;;;;;10460643;28;20213;-76
2023/05/21 00:11:24;;;;;;;5.35;4.95;;;;;;;;;;10462614;28;20229;-75
2023/05/21 00:16:26;;;;;;;6.30;4.90;;;;;;;;;;10441454;28;20218;-75
2023/05/21 00:21:28;;;;;;;5.07;4.57;;;;;;;;;;10478983;28;20221;-75
2023/05/21 00:26:29;;;;;;;4.80;4.50;;;;;;;;;;10474774;28;20926;-78
2023/05/21 00:31:32;;;;;;;5.65;5.13;;;;;;;;;;10463387;28;20241;-75
2023/05/21 00:36:33;;;;;;;5.95;5.45;;;;;;;;;;10468661;28;20224;-75
2023/05/21 00:41:37;;;;;;;5.90;5.32;;;;;;;;;;10467782;28;20225;-74
2023/05/21 00:46:39;;;;;;;5.82;5.18;;;;;;;;;;10448421;28;20230;-75
2023/05/21 00:51:40;;;;;;;5.38;4.88;;;;;;;;;;10447959;28;20220;-75
2023/05/21 00:56:41;;;;;;;6.65;5.32;;;;;;;;;;10475158;28;20244;-75
2023/05/21 01:01:44;;;;;;;5.63;4.72;;;;;;;;;;10445444;28;20221;-78
2023/05/21 01:06:45;;;;;;;6.07;5.50;;;;;;;;;;10455590;28;20222;-75
2023/05/21 01:11:48;;;;;;;6.38;5.72;;;;;;;;;;10459790;28;20214;-76
2023/05/21 01:16:50;;;;;;;5.97;5.40;;;;;;;;;;10477769;28;20225;-75
2023/05/21 01:21:55;;;;;;;5.35;5.00;;;;;;;;;;10469193;28;20217;-76
2023/05/21 01:26:57;;;;;;;5.68;5.10;;;;;;;;;;10456318;28;20253;-74
2023/05/21 01:32:04;;;;;;;5.97;5.47;;;;;;;;;;10470382;28;20326;-75
2023/05/21 01:37:14;;;;;;;9.77;5.88;;;;;;;;;;10459830;28;20766;-74
2023/05/21 01:42:16;;;;;;;8.15;5.97;;;;;;;;;;10453451;28;20538;-75
2023/05/21 01:47:17;;;;;;;6.00;5.40;;;;;;;;;;10441475;28;20228;-74
2023/05/21 01:52:18;;;;;;;6.18;5.60;;;;;;;;;;10439942;28;20218;-75
2023/05/21 01:57:20;;;;;;;5.95;5.45;;;;;;;;;;10455900;28;20221;-76
2023/05/21 02:02:21;;;;;;;7.72;5.68;;;;;;;;;;10451664;28;20219;-75
2023/05/21 02:07:23;;;;;;;6.95;6.25;;;;;;;;;;10470417;28;20257;-75
2023/05/21 02:12:24;;;;;;;5.88;5.47;;;;;;;;;;10442066;28;20284;-75
2023/05/21 02:17:29;;;;;;;6.72;6.07;;;;;;;;;;10444885;28;20222;-75
2023/05/21 02:22:30;;;;;;;7.88;6.82;;;;;;;;;;10441557;28;20312;-75
2023/05/21 02:27:31;;;;;;;7.85;6.60;;;;;;;;;;10439098;28;20220;-76
2023/05/21 02:32:32;;;;;;;8.35;7.18;;;;;;;;;;10444958;28;20998;-75
2023/05/21 02:37:35;;;;;;;7.18;6.47;;;;;;;;;;10446155;28;20224;-75
2023/05/21 02:42:38;;;;;;;11.38;7.40;;;;;;;;;;10450732;28;20244;-75
2023/05/21 02:47:39;;;;;;;7.85;6.70;;;;;;;;;;10443974;28;20723;-76
2023/05/21 02:52:41;;;;;;;8.32;6.72;;;;;;;;;;10455991;28;20367;-75
2023/05/21 02:57:43;;;;;;;8.98;6.82;;;;;;;;;;10432777;28;20599;-75
2023/05/21 03:02:44;;;;;;;9.50;6.80;;;;;;;;;;10428890;28;20221;-76
2023/05/21 03:07:45;;;;;;;7.13;6.60;;;;;;;;;;10446356;28;20730;-75
2023/05/21 03:12:47;;;;;;;8.10;7.38;;;;;;;;;;10454991;28;20312;-76
2023/05/21 03:17:47;;;;;;;11.55;7.40;;;;;;;;;;10435616;28;20244;-78
2023/05/21 03:22:48;;;;;;;11.57;8.10;;;;;;;;;;10456445;28;20225;-75
2023/05/21 03:27:50;;;;;;;8.68;7.82;;;;;;;;;;10469111;28;20214;-74
2023/05/21 03:33:14;;;;;;;10.85;8.63;;;;;;;;;;10469201;28;20209;-76
2023/05/21 03:38:17;;;;;;;10.45;8.80;;;;;;;;;;10474197;28;20242;-75
2023/05/21 03:43:18;;;;;;;9.80;8.15;;;;;;;;;;10426513;28;20276;-75
2023/05/21 03:48:20;;;;;;;9.48;7.60;;;;;;;;;;10454638;28;20214;-76
2023/05/21 03:53:21;;;;;;;11.27;8.30;;;;;;;;;;10458266;28;20765;-75
2023/05/21 03:58:23;;;;;;;11.45;8.98;;;;;;;;;;10434167;28;20228;-76
2023/05/21 04:03:24;;;;;;;11.25;8.88;;;;;;;;;;10446071;28;20222;-76
2023/05/21 04:08:25;;;;;;;10.68;8.63;;;;;;;;;;10433944;28;20795;-76
2023/05/21 04:13:27;;;;;;;10.55;8.68;;;;;;;;;;10477683;28;20268;-76
2023/05/21 04:18:28;;;;;;;14.10;9.70;;;;;;;;;;10478032;28;20947;-75
2023/05/21 04:23:29;;;;;;;12.20;9.40;;;;;;;;;;10446631;28;20218;-76
2023/05/21 04:28:32;;;;;;;11.98;8.18;;;;;;;;;;10450964;28;20226;-75
2023/05/21 04:33:34;;;;;;;11.35;9.48;;;;;;;;;;10438785;28;20591;-76
2023/05/21 04:38:35;;;;;;;10.48;8.95;;;;;;;;;;10471859;28;20690;-75
2023/05/21 04:43:42;;;;;;;18.48;11.20;;;;;;;;;;10457085;28;20286;-75
2023/05/21 04:48:45;;;;;;;16.20;10.30;;;;;;;;;;10455298;28;20214;-75
2023/05/21 04:53:46;;;;;;;11.98;10.57;;;;;;;;;;10437957;28;21006;-76
2023/05/21 04:58:48;;;;;;;17.27;11.85;;;;;;;;;;10449512;28;20695;-75
2023/05/21 05:03:49;;;;;;;19.80;12.40;;;;;;;;;;10433735;28;20217;-75
2023/05/21 05:08:50;;;;;;;18.88;11.93;;;;;;;;;;10449803;28;20304;-76
2023/05/21 05:13:51;;;;;;;15.63;12.02;;;;;;;;;;10432546;28;20221;-75
2023/05/21 05:18:53;;;;;;;13.25;11.45;;;;;;;;;;10440431;28;20618;-77
2023/05/21 05:23:55;;;;;;;15.95;10.80;;;;;;;;;;10458287;28;20226;-76
2023/05/21 05:29:00;;;;;;;17.58;12.15;;;;;;;;;;10462646;28;20218;-76
2023/05/21 05:34:01;;;;;;;16.33;12.30;;;;;;;;;;10442526;28;20830;-76
2023/05/21 05:39:03;;;;;;;19.15;13.27;;;;;;;;;;10448199;28;20802;-76
2023/05/21 05:44:05;;;;;;;17.75;12.43;;;;;;;;;;10439356;28;20248;-76
2023/05/21 05:49:09;;;;;;;15.98;11.98;;;;;;;;;;10439459;28;20606;-76
2023/05/21 05:54:11;;;;;;;18.60;13.40;;;;;;;;;;10461943;28;20206;-76
2023/05/21 05:59:12;;;;;;;18.58;13.85;;;;;;;;;;10449545;28;20748;-76
2023/05/21 06:04:13;;;;;;;17.00;12.57;;;;;;;;;;10439166;28;20234;-76
2023/05/21 06:09:15;;;;;;;22.90;13.95;;;;;;;;;;10438304;28;20595;-76
2023/05/21 06:14:16;;;;;;;21.40;14.73;;;;;;;;;;10440690;28;20585;-75
2023/05/21 06:19:17;;;;;;;24.83;14.68;;;;;;;;;;10447156;28;20275;-75
2023/05/21 06:24:18;;;;;;;21.88;13.98;;;;;;;;;;10450438;28;20217;-74
2023/05/21 06:29:20;;;;;;;16.05;13.52;;;;;;;;;;10444970;28;20233;-75
2023/05/21 06:34:21;;;;;;;17.52;13.88;;;;;;;;;;10429857;28;20218;-74
2023/05/21 06:39:23;;;;;;;19.55;14.65;;;;;;;;;;10431166;28;21466;-73
2023/05/21 06:44:25;;;;;;;20.58;14.43;;;;;;;;;;10441119;28;20210;-74
2023/05/21 06:49:40;;;;;;;20.42;15.82;;;;;;;;;;10440981;28;20237;-75
2023/05/21 06:54:42;;;;;;;17.67;14.10;;;;;;;;;;10430083;28;20209;-75
2023/05/21 06:59:43;;;;;;;23.02;15.15;;;;;;;;;;10426707;28;20248;-73
2023/05/21 07:04:44;;;;;;;18.83;15.10;;;;;;;;;;10450195;28;20330;-77
2023/05/21 07:09:45;;;;;;;19.20;14.27;;;;;;;;;;10462288;28;20213;-73
2023/05/21 07:14:46;;;;;;;16.65;13.75;;;;;;;;;;10444782;28;20272;-74
2023/05/21 07:19:47;;;;;;;20.88;14.57;;;;;;;;;;10437379;28;20328;-75
2023/05/21 07:24:48;;;;;;;20.98;15.05;;;;;;;;;;10458444;28;20228;-75
2023/05/21 07:29:51;;;;;;;19.55;14.57;;;;;;;;;;10461174;28;20214;-77
2023/05/21 07:34:52;;;;;;;19.75;13.93;;;;;;;;;;10443388;28;20218;-79
2023/05/21 07:39:54;;;;;;;17.05;13.55;;;;;;;;;;10481307;28;20221;-78
2023/05/21 07:44:55;;;;;;;19.05;13.00;;;;;;;;;;10470414;28;20312;-80
2023/05/21 07:49:58;;;;;;;19.35;13.65;;;;;;;;;;10470601;28;20253;-78
2023/05/21 07:55:01;;;;;;;17.73;13.13;;;;;;;;;;10482447;28;20217;-78
2023/05/21 08:00:08;;;;;;;18.10;14.25;;;;;;;;;;10465168;28;20305;-79
2023/05/21 08:05:16;;;;;;;21.23;13.45;;;;;;;;;;10484463;28;20213;-77
2023/05/21 08:10:19;;;;;;;17.83;12.95;;;;;;;;;;10449050;28;20305;-79
2023/05/21 08:15:21;;;;;;;19.30;13.25;;;;;;;;;;10466588;28;20201;-78
2023/05/21 08:20:22;;;;;;;15.50;12.68;;;;;;;;;;10464559;28;20406;-78
2023/05/21 08:25:24;;;;;;;17.38;13.15;;;;;;;;;;10450464;28;20206;-79
2023/05/21 08:30:26;;;;;;;13.35;11.95;;;;;;;;;;10443147;28;20257;-81
2023/05/21 08:35:27;;;;;;;14.52;13.02;;;;;;;;;;10449432;28;20274;-81
2023/05/21 08:40:34;;;;;;;15.00;12.63;;;;;;;;;;10455906;28;20222;-79
2023/05/21 08:45:39;;;;;;;16.08;12.30;;;;;;;;;;10453114;28;20221;-79
2023/05/21 08:50:40;;;;;;;17.90;12.15;;;;;;;;;;10440777;28;20292;-80
2023/05/21 08:55:49;;;;;;;13.32;11.85;;;;;;;;;;10426661;28;20282;-80
2023/05/21 09:00:50;;;;;;;13.20;11.73;;;;;;;;;;10453381;28;20965;-82
2023/05/21 09:05:52;;;;;;;15.05;11.95;;;;;;;;;;10415400;28;20239;-82
2023/05/21 09:11:02;;;;;;;15.45;12.93;;;;;;;;;;10456095;28;20216;-82
2023/05/21 09:16:09;;;;;;;14.65;11.60;;;;;;;;;;10461641;28;20222;-81
2023/05/21 09:21:27;;;;;;;15.55;11.45;;;;;;;;;;10460358;28;20214;-82
2023/05/21 09:26:34;;;;;;;16.00;11.77;;;;;;;;;;10439720;28;20213;-82
2023/05/21 09:31:45;;;;;;;14.05;12.13;;;;;;;;;;10443231;28;20220;-80
2023/05/21 09:36:50;;;;;;;14.77;12.02;;;;;;;;;;10465073;28;20230;-82
2023/05/21 09:41:52;;;;;;;13.13;11.60;;;;;;;;;;10459477;28;20218;-83
2023/05/21 09:46:58;;;;;;;12.82;10.77;;;;;;;;;;10452285;28;20214;-82
2023/05/21 09:51:59;;;;;;;12.02;10.80;;;;;;;;;;10482213;28;20222;-80
2023/05/21 09:57:04;;;;;;;12.52;11.32;;;;;;;;;;10479928;28;20246;-80
2023/05/21 10:02:18;;;;;;;15.27;10.20;;;;;;;;;;10471054;28;20213;-84
2023/05/21 10:07:24;;;;;;;12.02;10.32;;;;;;;;;;10491758;28;20221;-81
2023/05/21 10:12:27;;;;;;;10.90;9.85;;;;;;;;;;10477829;28;20236;-84
2023/05/21 10:17:29;;;;;;;10.70;9.70;;;;;;;;;;10435191;28;20779;-81
2023/05/21 10:22:31;;;;;;;11.75;10.75;;;;;;;;;;10447164;28;20289;-82
2023/05/21 10:27:32;;;;;;;12.07;10.88;;;;;;;;;;10465003;28;20759;-79
2023/05/21 10:32:33;;;;;;;10.02;9.13;;;;;;;;;;10425212;28;20213;-80
2023/05/21 10:37:35;;;;;;;10.43;9.35;;;;;;;;;;10467135;28;20214;-77
2023/05/21 10:42:36;;;;;;;10.13;9.07;;;;;;;;;;10438439;28;20221;-80
2023/05/21 10:47:49;;;;;;;9.30;8.07;;;;;;;;;;10432687;28;20316;-83
2023/05/21 10:53:02;;;;;;;12.98;8.38;;;;;;;;;;10432125;28;20216;-79
2023/05/21 10:58:22;;;;;;;8.63;8.02;;;;;;;;;;10447559;28;20220;-78
2023/05/21 11:03:23;;;;;;;8.98;7.75;;;;;;;;;;10445655;28;20274;-78
2023/05/21 11:08:25;;;;;;;8.07;7.40;;;;;;;;;;10467706;28;20222;-78
2023/05/21 11:13:26;;;;;;;9.73;8.52;;;;;;;;;;10463172;28;20206;-79
2023/05/21 11:18:30;;;;;;;8.95;7.82;;;;;;;;;;10438060;28;20224;-77
2023/05/21 11:23:50;;;;;;;8.02;7.22;;;;;;;;;;10471301;28;20249;-83
2023/05/21 11:29:10;;;;;;;7.97;7.47;;;;;;;;;;10445422;28;20213;-82
2023/05/21 11:34:12;;;;;;;8.75;8.05;;;;;;;;;;10443027;28;20271;-84
2023/05/21 11:39:16;;;;;;;8.65;7.50;;;;;;;;;;10476882;28;22308;-83
2023/05/21 11:44:17;;;;;;;8.38;7.57;;;;;;;;;;10451436;28;20279;-83
2023/05/21 11:49:20;;;;;;;8.43;7.72;;;;;;;;;;10470964;28;20241;-83
2023/05/21 11:54:22;;;;;;;7.97;7.38;;;;;;;;;;10456745;28;20271;-82
2023/05/21 11:59:23;;;;;;;7.63;7.03;;;;;;;;;;10453669;28;20218;-86
2023/05/21 12:04:28;;;;;;;8.25;7.40;;;;;;;;;;10469449;28;20229;-80
2023/05/21 12:09:30;;;;;;;8.75;8.00;;;;;;;;;;10444268;28;20218;-85
2023/05/21 12:14:31;;;;;;;7.78;7.28;;;;;;;;;;10470647;28;20679;-83
2023/05/21 12:19:33;;;;;;;9.07;7.82;;;;;;;;;;10444328;28;20218;-80
2023/05/21 12:24:34;;;;;;;8.48;7.80;;;;;;;;;;10478350;28;21897;-83
2023/05/21 12:29:40;;;;;;;8.52;7.80;;;;;;;;;;10451898;28;20790;-85
2023/05/21 12:34:45;;;;;;;8.90;7.97;;;;;;;;;;10473302;28;20217;-80
2023/05/21 12:39:47;;;;;;;8.70;8.00;;;;;;;;;;10451535;28;20729;-76
2023/05/21 12:44:48;;;;;;;8.73;7.80;;;;;;;;;;10472184;28;20709;-81
2023/05/21 12:49:50;;;;;;;8.88;7.68;;;;;;;;;;10445311;28;20897;-80
2023/05/21 12:54:52;;;;;;;8.13;7.57;;;;;;;;;;10460893;28;20647;-84
2023/05/21 12:59:57;;;;;;;8.63;7.90;;;;;;;;;;10460518;28;20257;-79
2023/05/21 13:04:59;;;;;;;9.32;8.63;;;;;;;;;;10449424;28;20948;-79
2023/05/21 13:10:01;;;;;;;9.95;7.72;;;;;;;;;;10478692;28;20217;-79
2023/05/21 13:15:03;;;;;;;10.05;8.30;;;;;;;;;;10444261;28;20225;-81
2023/05/21 13:20:10;;;;;;;10.32;7.72;;;;;;;;;;10457364;28;20315;-80
2023/05/21 13:25:14;;;;;;;9.40;8.63;;;;;;;;;;10480632;28;20225;-77
2023/05/21 13:30:15;;;;;;;8.95;8.10;;;;;;;;;;10450144;28;20220;-79
2023/05/21 13:35:16;;;;;;;8.80;7.90;;;;;;;;;;10443897;28;20499;-79
2023/05/21 13:40:17;;;;;;;8.18;7.68;;;;;;;;;;10440170;28;20197;-79
2023/05/21 13:45:19;;;;;;;8.77;8.15;;;;;;;;;;10470561;28;20216;-78
2023/05/21 13:50:20;;;;;;;8.75;7.95;;;;;;;;;;10470609;28;20644;-80
2023/05/21 13:55:21;;;;;;;9.00;8.40;;;;;;;;;;10447644;28;20209;-79
2023/05/21 14:00:22;;;;;;;10.52;8.18;;;;;;;;;;10441223;28;21384;-79
2023/05/21 14:05:23;;;;;;;8.90;7.47;;;;;;;;;;10435325;28;20206;-80
2023/05/21 14:10:24;;;;;;;8.77;8.05;;;;;;;;;;10455908;28;20252;-81
2023/05/21 14:15:25;;;;;;;7.85;7.35;;;;;;;;;;10468325;28;20853;-79
2023/05/21 14:20:26;;;;;;;7.78;7.00;;;;;;;;;;10444323;28;20213;-80
2023/05/21 14:25:27;;;;;;;7.97;7.38;;;;;;;;;;10448883;28;20283;-81
2023/05/21 14:30:28;;;;;;;8.10;7.40;;;;;;;;;;10468325;28;20218;-80
2023/05/21 14:35:29;;;;;;;7.25;6.80;;;;;;;;;;10443391;28;20230;-81
2023/05/21 14:40:30;;;;;;;7.78;7.18;;;;;;;;;;10453714;28;20640;-82
2023/05/21 14:45:34;;;;;;;6.80;6.43;;;;;;;;;;10430171;28;20263;-81
2023/05/21 14:50:35;;;;;;;7.38;6.88;;;;;;;;;;10428383;28;20225;-80
2023/05/21 14:55:36;;;;;;;7.07;6.68;;;;;;;;;;10462492;28;20228;-80
2023/05/21 15:00:38;;;;;;;9.40;6.93;;;;;;;;;;10454673;28;20225;-81
2023/05/21 15:05:39;;;;;;;6.93;6.43;;;;;;;;;;10440980;28;20248;-79
2023/05/21 15:10:40;;;;;;;7.38;6.30;;;;;;;;;;10451966;28;20317;-79
2023/05/21 15:15:41;;;;;;;6.22;5.90;;;;;;;;;;10466367;28;20249;-80
2023/05/21 15:20:42;;;;;;;5.18;4.95;;;;;;;;;;10426813;28;20214;-81
2023/05/21 15:25:43;;;;;;;4.80;4.50;;;;;;;;;;10434556;28;20229;-81
2023/05/21 15:30:44;;;;;;;5.35;5.05;;;;;;;;;;10469669;28;20225;-79
2023/05/21 15:35:45;;;;;;;6.25;4.95;;;;;;;;;;10461089;28;20629;-78
2023/05/21 15:40:47;;;;;;;5.20;5.00;;;;;;;;;;10468692;28;20299;-79
2023/05/21 15:45:48;;;;;;;5.30;4.90;;;;;;;;;;10485804;28;20276;-81
2023/05/21 15:50:49;;;;;;;5.38;5.15;;;;;;;;;;10471199;28;20217;-80
2023/05/21 15:55:50;;;;;;;5.63;5.28;;;;;;;;;;10486763;28;20660;-80
2023/05/21 16:00:51;;;;;;;5.50;5.20;;;;;;;;;;10440756;28;20218;-81
2023/05/21 16:05:52;;;;;;;5.03;4.75;;;;;;;;;;10468439;28;20231;-80
2023/05/21 16:10:53;;;;;;;5.47;5.28;;;;;;;;;;10456224;28;20993;-81
2023/05/21 16:15:54;;;;;;;5.72;5.20;;;;;;;;;;10461435;28;20847;-81
2023/05/21 16:20:55;;;;;;;5.43;5.07;;;;;;;;;;10471082;28;20878;-79
2023/05/21 16:25:56;;;;;;;5.63;5.32;;;;;;;;;;10449849;28;20217;-80
2023/05/21 16:30:57;;;;;;;7.05;6.50;;;;;;;;;;10445007;28;20217;-81
2023/05/21 16:35:58;;;;;;;7.70;7.07;;;;;;;;;;10467579;28;20225;-80
2023/05/21 16:40:59;;;;;;;6.47;5.85;;;;;;;;;;10457154;28;20217;-79
2023/05/21 16:46:00;;;;;;;5.95;5.45;;;;;;;;;;10449688;28;20263;-82
2023/05/21 16:51:01;;;;;;;10.05;8.57;;;;;;;;;;10452602;28;20218;-80
2023/05/21 16:56:02;;;;;;;6.60;5.95;;;;;;;;;;10456766;28;20209;-80
2023/05/21 17:01:03;;;;;;;5.60;5.20;;;;;;;;;;10483028;28;20214;-80
2023/05/21 17:06:06;;;;;;;5.28;4.97;;;;;;;;;;10466168;28;20855;-79
2023/05/21 17:11:07;;;;;;;5.50;5.00;;;;;;;;;;10454231;28;20236;-80
2023/05/21 17:16:08;;;;;;;4.80;4.50;;;;;;;;;;10461301;28;20324;-82
2023/05/21 17:21:09;;;;;;;5.13;4.82;;;;;;;;;;10437205;28;20226;-80
2023/05/21 17:26:12;;;;;;;4.63;4.25;;;;;;;;;;10440223;28;20218;-80
2023/05/21 17:31:13;;;;;;;4.45;4.25;;;;;;;;;;10468101;28;20762;-81
2023/05/21 17:36:14;;;;;;;4.30;4.03;;;;;;;;;;10462100;28;20642;-79
2023/05/21 17:41:17;;;;;;;4.45;4.25;;;;;;;;;;10452688;28;20214;-82
2023/05/21 17:46:18;;;;;;;4.47;4.25;;;;;;;;;;10469164;28;20257;-79
2023/05/21 17:51:19;;;;;;;5.20;4.70;;;;;;;;;;10455024;28;20236;-80
2023/05/21 17:56:21;;;;;;;4.55;4.35;;;;;;;;;;10469902;28;20706;-78
2023/05/21 18:01:22;;;;;;;6.00;4.93;;;;;;;;;;10429726;28;20323;-78
2023/05/21 18:06:23;;;;;;;4.50;4.07;;;;;;;;;;10456785;28;21051;-78
2023/05/21 18:11:25;;;;;;;4.78;4.57;;;;;;;;;;10469377;28;20218;-79
2023/05/21 18:16:28;;;;;;;4.63;4.50;;;;;;;;;;10432002;28;20214;-79
2023/05/21 18:21:30;;;;;;;5.50;5.15;;;;;;;;;;10430819;28;20275;-78
2023/05/21 18:26:31;;;;;;;4.93;4.60;;;;;;;;;;10470048;28;20782;-80
2023/05/21 18:31:32;;;;;;;5.40;5.10;;;;;;;;;;10444890;28;20210;-82
2023/05/21 18:36:37;;;;;;;5.13;4.80;;;;;;;;;;10463795;28;20237;-81
2023/05/21 18:41:38;;;;;;;5.13;4.70;;;;;;;;;;10447957;28;20236;-81
2023/05/21 18:46:39;;;;;;;4.93;4.68;;;;;;;;;;10456536;28;20224;-82
2023/05/21 18:51:40;;;;;;;5.07;4.78;;;;;;;;;;10434949;28;20222;-84
2023/05/21 18:56:41;;;;;;;4.75;4.45;;;;;;;;;;10439258;28;20300;-83
2023/05/21 19:01:42;;;;;;;5.18;4.85;;;;;;;;;;10475340;28;20220;-84
2023/05/21 19:06:43;;;;;;;8.05;5.15;;;;;;;;;;10437759;28;20225;-84
2023/05/21 19:11:44;;;;;;;4.85;4.45;;;;;;;;;;10447661;28;20256;-84
2023/05/21 19:16:45;;;;;;;4.78;4.40;;;;;;;;;;10450024;28;20213;-83
2023/05/21 19:21:46;;;;;;;4.55;4.30;;;;;;;;;;10461829;28;20267;-83
2023/05/21 19:26:47;;;;;;;4.55;4.22;;;;;;;;;;10459859;28;20209;-80
2023/05/21 19:31:48;;;;;;;3.88;3.70;;;;;;;;;;10478934;28;20241;-81
2023/05/21 19:36:49;;;;;;;3.55;3.45;;;;;;;;;;10485535;28;20276;-80
2023/05/21 19:41:51;;;;;;;4.10;3.90;;;;;;;;;;10449521;28;20222;-80
2023/05/21 19:46:53;;;;;;;5.25;4.95;;;;;;;;;;10450036;28;20594;-82
2023/05/21 19:51:55;;;;;;;4.55;4.40;;;;;;;;;;10476605;28;20291;-83
2023/05/21 19:56:56;;;;;;;4.22;4.03;;;;;;;;;;10477091;28;20213;-79
2023/05/21 20:01:57;;;;;;;5.13;4.70;;;;;;;;;;10470431;28;20599;-78
2023/05/21 20:06:58;;;;;;;5.45;4.93;;;;;;;;;;10478358;28;20229;-78
2023/05/21 20:11:59;;;;;;;4.97;4.53;;;;;;;;;;10502772;28;20652;-79
2023/05/21 20:17:00;;;;;;;6.55;4.80;;;;;;;;;;10471649;28;20244;-81
2023/05/21 20:22:01;;;;;;;4.50;4.20;;;;;;;;;;10501346;28;20259;-80
2023/05/21 20:27:02;;;;;;;6.38;5.18;;;;;;;;;;10485491;28;21099;-78
2023/05/21 20:32:03;;;;;;;5.13;4.57;;;;;;;;;;10465494;28;20225;-78
2023/05/21 20:37:05;;;;;;;4.65;4.30;;;;;;;;;;10460189;28;20383;-78
2023/05/21 20:42:09;;;;;;;5.70;5.20;;;;;;;;;;10466430;28;20222;-78
2023/05/21 20:47:10;;;;;;;4.95;4.43;;;;;;;;;;10454595;28;20217;-78
2023/05/21 20:52:13;;;;;;;5.07;4.53;;;;;;;;;;10484807;28;20228;-79
2023/05/21 20:57:14;;;;;;;4.60;4.40;;;;;;;;;;10465961;28;20266;-79
2023/05/21 21:02:16;;;;;;;4.75;4.53;;;;;;;;;;10449766;28;20305;-81
2023/05/21 21:07:17;;;;;;;5.22;4.82;;;;;;;;;;10470445;28;20213;-78
2023/05/21 21:12:18;;;;;;;4.70;4.50;;;;;;;;;;10472924;28;20574;-79
2023/05/21 21:17:19;;;;;;;5.18;4.80;;;;;;;;;;10459915;28;20232;-79
2023/05/21 21:22:20;;;;;;;4.97;4.55;;;;;;;;;;10466272;28;20221;-79
2023/05/21 21:27:21;;;;;;;5.25;4.95;;;;;;;;;;10485264;28;20274;-79
2023/05/21 21:32:22;;;;;;;4.88;4.47;;;;;;;;;;10466174;28;20273;-78
2023/05/21 21:37:24;;;;;;;4.45;4.28;;;;;;;;;;10456258;28;20209;-80
2023/05/21 21:42:25;;;;;;;4.72;4.53;;;;;;;;;;10472140;28;20638;-79
2023/05/21 21:47:26;;;;;;;5.47;5.18;;;;;;;;;;10464347;28;20214;-78
2023/05/21 21:52:27;;;;;;;5.18;4.75;;;;;;;;;;10469656;28;20267;-80
2023/05/21 21:57:28;;;;;;;4.75;4.55;;;;;;;;;;10485464;28;20221;-78
2023/05/21 22:02:29;;;;;;;5.45;5.05;;;;;;;;;;10446940;28;20210;-80
2023/05/21 22:07:30;;;;;;;5.47;4.88;;;;;;;;;;10449014;28;20217;-79
2023/05/21 22:12:32;;;;;;;5.57;5.20;;;;;;;;;;10470809;28;20606;-78
2023/05/21 22:17:33;;;;;;;5.63;5.32;;;;;;;;;;10464888;28;20217;-77
2023/05/21 22:22:35;;;;;;;5.68;5.25;;;;;;;;;;10459598;28;20233;-79
2023/05/21 22:27:36;;;;;;;4.53;4.32;;;;;;;;;;10460476;28;20224;-79
2023/05/21 22:32:37;;;;;;;5.43;5.03;;;;;;;;;;10481883;28;20209;-79
2023/05/21 22:37:38;;;;;;;4.53;4.22;;;;;;;;;;10470871;28;20586;-80
2023/05/21 22:42:40;;;;;;;5.30;4.88;;;;;;;;;;10485447;28;20667;-79
2023/05/21 22:47:41;;;;;;;4.75;4.43;;;;;;;;;;10449055;28;20224;-80
2023/05/21 22:52:42;;;;;;;3.88;3.63;;;;;;;;;;10451703;28;20696;-80
2023/05/21 22:57:43;;;;;;;3.53;3.42;;;;;;;;;;10477279;28;20210;-76
2023/05/21 23:02:47;;;;;;;3.85;3.65;;;;;;;;;;10450277;28;20218;-80
2023/05/21 23:07:48;;;;;;;3.60;3.40;;;;;;;;;;10483972;28;20581;-79
2023/05/21 23:12:49;;;;;;;3.90;3.63;;;;;;;;;;10460372;28;20221;-79
2023/05/21 23:17:50;;;;;;;3.42;3.30;;;;;;;;;;10479469;28;20217;-78
2023/05/21 23:22:51;;;;;;;3.90;3.55;;;;;;;;;;10486196;28;20266;-80
2023/05/21 23:27:52;;;;;;;3.78;3.58;;;;;;;;;;10463737;28;20232;-78
2023/05/21 23:32:53;;;;;;;3.75;3.55;;;;;;;;;;10464351;28;20216;-78
2023/05/21 23:37:55;;;;;;;3.72;3.13;;;;;;;;;;10473169;28;20229;-81
2023/05/21 23:42:56;;;;;;;3.45;3.35;;;;;;;;;;10477844;28;20599;-81
2023/05/21 23:47:57;;;;;;;2.80;2.70;;;;;;;;;;10455222;28;20222;-77
2023/05/21 23:52:58;;;;;;;3.53;3.20;;;;;;;;;;10461886;28;20280;-79
2023/05/21 23:58:00;;;;;;;3.92;3.38;;;;;;;;;;10436028;28;20217;-77
